Home

Weather

KSLC Current Conditions

KSLC 201654Z 00000KT 10SM CLR 14/02 A3035 RMK AO2 SLP257 T01440017

KSLC Aviation Forecast

TAF KSLC 201736Z 2018/2124 32008KT P6SM SKC FM210300 15005KT P6SM FEW120 SCT200 FM212000 30008KT P6SM SCT080 BKN200


58° F
Clear
Clear

Clear
Saturday
Clear
High 69°/Low 48°
0%
Partly Cloudy
Sunday
Partly Cloudy
High 70°/Low 48°
0%
Chance of a Thunderstorm
Monday
Chance of a Thunderstorm
High 66°/Low 46°
40%
Partly Cloudy
Tuesday
Partly Cloudy
High 64°/Low 46°
20%
Clear
Wednesday
Clear
High 65°/Low 45°
0%
Clear
Thursday
Clear
High 65°/Low 45°
0%